Time;durP1;ratioP1;P1;durP2;ratioP2;P2;SDS_P1;SDS_P2;PMS_P1;PMS_P2;Temp;Humidity;BMP_temperature;BMP_pressure;BME280_temperature;BME280_humidity;BME280_pressure;Samples;Min_cycle;Max_cycle;Signal;HPM_P1;HPM_P2
2022/09/26 00:02:08;;;;;;;8.65;5.57;;;;;;;13.54;63.47;99209.25;4923008;29;20031;-89
2022/09/26 00:04:34;;;;;;;9.70;6.93;;;;;;;13.29;65.32;99199.59;4923423;29;20110;-88
2022/09/26 00:06:59;;;;;;;9.05;5.82;;;;;;;13.20;66.04;99217.50;4940021;29;20027;-89
2022/09/26 00:09:25;;;;;;;11.30;6.97;;;;;;;13.05;65.94;99195.00;4939177;29;20035;-89
2022/09/26 00:11:51;;;;;;;11.55;6.57;;;;;;;12.92;66.27;99187.56;4923890;29;20027;-89
2022/09/26 00:14:24;;;;;;;14.43;6.85;;;;;;;12.78;66.73;99181.25;4955472;28;20110;-89
2022/09/26 00:16:49;;;;;;;9.73;6.35;;;;;;;12.76;66.96;99191.53;4940589;29;20030;-89
2022/09/26 00:19:15;;;;;;;9.38;5.80;;;;;;;12.54;66.75;99180.16;4947080;29;20031;-89
2022/09/26 00:21:41;;;;;;;7.85;4.47;;;;;;;12.53;66.64;99189.38;4904617;29;20027;-89
2022/09/26 00:24:07;;;;;;;9.23;4.78;;;;;;;12.62;66.00;99184.13;4943748;29;20178;-88
2022/09/26 00:26:33;;;;;;;9.23;5.03;;;;;;;12.71;65.79;99181.59;4939456;29;20031;-89
2022/09/26 00:29:00;;;;;;;11.98;6.15;;;;;;;12.81;65.99;99184.19;4939564;29;20023;-89
2022/09/26 00:31:29;;;;;;;12.65;6.13;;;;;;;12.85;66.18;99179.81;4955349;28;20053;-89
2022/09/26 00:33:55;;;;;;;9.00;5.68;;;;;;;12.77;66.08;99183.16;4938632;29;20031;-89
2022/09/26 00:36:21;;;;;;;8.40;4.78;;;;;;;12.66;66.58;99181.69;4922811;29;20034;-89
2022/09/26 00:38:46;;;;;;;6.10;4.57;;;;;;;12.51;66.82;99180.75;4922370;29;20031;-89
2022/09/26 00:41:11;;;;;;;6.18;3.80;;;;;;;12.46;66.82;99175.38;4938436;29;20038;-89
2022/09/26 00:43:40;;;;;;;6.25;4.35;;;;;;;12.44;67.43;99196.47;4938340;29;20023;-89
2022/09/26 00:46:24;;;;;;;7.75;4.82;;;;;;;12.28;68.44;99189.59;4953075;28;20031;-89
2022/09/26 00:49:10;;;;;;;5.25;3.83;;;;;;;12.03;68.80;99172.53;4940489;29;20027;-89
2022/09/26 00:51:36;;;;;;;8.38;4.28;;;;;;;11.90;69.24;99167.78;4953921;29;20142;-89
2022/09/26 00:54:02;;;;;;;6.18;4.30;;;;;;;12.04;68.22;99182.25;4938404;29;20134;-89
2022/09/26 00:56:31;;;;;;;5.72;4.28;;;;;;;12.07;67.97;99176.28;4938758;29;20497;-89
2022/09/26 00:59:11;;;;;;;6.38;4.40;;;;;;;12.34;67.79;99197.34;4954424;28;20520;-89
2022/09/26 01:01:37;;;;;;;5.15;3.83;;;;;;;12.33;67.67;99193.06;4970486;28;20055;-89
2022/09/26 01:04:02;;;;;;;5.90;4.10;;;;;;;12.16;68.52;99183.75;4930742;29;20032;-89
2022/09/26 01:06:28;;;;;;;8.05;3.80;;;;;;;11.99;68.39;99187.66;4918845;29;20028;-89
2022/09/26 01:08:56;;;;;;;5.55;4.43;;;;;;;11.87;69.00;99185.31;4934926;29;20027;-89
2022/09/26 01:11:21;;;;;;;5.53;4.13;;;;;;;11.76;69.21;99175.69;4919416;29;20046;-89
2022/09/26 01:13:47;;;;;;;5.63;4.38;;;;;;;11.72;69.40;99167.38;4934643;29;20410;-89
2022/09/26 01:16:13;;;;;;;6.50;4.45;;;;;;;11.74;69.22;99172.47;4918981;29;20035;-89
2022/09/26 01:18:38;;;;;;;7.28;4.82;;;;;;;11.78;69.28;99180.81;4914942;29;20051;-88
2022/09/26 01:22:05;;;;;;;7.00;4.78;;;;;;;11.79;69.17;99187.81;4899892;29;20036;-89
2022/09/26 01:24:31;;;;;;;7.53;5.53;;;;;;;11.85;69.03;99190.19;4886386;29;20043;-89
2022/09/26 01:27:22;;;;;;;7.53;4.93;;;;;;;11.73;68.34;99155.47;4954697;29;20034;-89
2022/09/26 01:30:06;;;;;;;11.95;5.40;;;;;;;12.00;68.18;99189.31;4953719;29;20386;-89
2022/09/26 01:32:49;;;;;;;6.53;4.85;;;;;;;12.03;67.99;99185.22;4953555;29;20023;-89
2022/09/26 01:35:21;;;;;;;7.47;5.00;;;;;;;12.07;67.96;99178.16;4953340;29;20029;-89
2022/09/26 01:38:06;;;;;;;8.73;5.60;;;;;;;12.09;67.92;99184.09;4954766;29;20023;-89
2022/09/26 01:40:41;;;;;;;16.25;9.80;;;;;;;12.13;67.48;99172.44;4937149;29;20060;-89
2022/09/26 01:43:19;;;;;;;12.68;8.45;;;;;;;11.98;68.03;99161.78;4953452;29;20552;-88
2022/09/26 01:45:58;;;;;;;15.70;9.23;;;;;;;11.86;68.10;99148.63;4915684;29;20032;-89
2022/09/26 01:48:29;;;;;;;15.23;10.75;;;;;;;11.79;68.18;99144.66;4902024;29;20020;-89
2022/09/26 01:50:59;;;;;;;17.08;11.38;;;;;;;11.80;68.13;99138.97;4918710;29;20024;-89
2022/09/26 01:53:28;;;;;;;20.83;10.48;;;;;;;11.92;67.92;99152.94;4920421;29;20082;-89
2022/09/26 01:55:56;;;;;;;15.95;9.50;;;;;;;12.03;67.49;99158.25;4937500;28;20027;-89
2022/09/26 01:58:24;;;;;;;14.45;9.20;;;;;;;12.12;67.39;99161.94;4953161;28;20086;-89
2022/09/26 02:00:50;;;;;;;14.85;8.50;;;;;;;12.00;67.46;99145.31;4953096;29;20067;-89
2022/09/26 02:03:20;;;;;;;18.00;10.05;;;;;;;11.96;67.96;99152.38;4952045;29;20027;-89
2022/09/26 02:05:50;;;;;;;19.13;11.13;;;;;;;11.91;68.85;99181.00;4903152;29;20095;-89
2022/09/26 02:08:19;;;;;;;14.77;10.38;;;;;;;11.81;68.77;99169.47;4919279;29;20100;-89
2022/09/26 02:11:15;;;;;;;14.27;10.05;;;;;;;11.58;69.79;99160.16;4937235;29;20023;-89
2022/09/26 02:13:55;;;;;;;15.18;9.75;;;;;;;11.51;69.91;99171.28;4938866;29;20027;-89
2022/09/26 02:16:24;;;;;;;15.23;10.07;;;;;;;11.53;69.92;99179.88;4953771;28;20123;-89
2022/09/26 02:19:15;;;;;;;13.50;8.82;;;;;;;11.40;70.11;99178.63;4937561;28;20153;-89
2022/09/26 02:21:41;;;;;;;13.40;8.95;;;;;;;11.32;70.52;99171.91;4935679;29;20085;-88
2022/09/26 02:24:06;;;;;;;14.15;9.57;;;;;;;11.24;70.36;99169.81;4937731;29;20019;-89
2022/09/26 02:26:32;;;;;;;19.88;9.25;;;;;;;11.23;70.41;99178.19;4938424;29;20475;-88
2022/09/26 02:28:58;;;;;;;13.40;7.57;;;;;;;11.09;70.92;99168.00;4953712;29;20026;-89
2022/09/26 02:31:25;;;;;;;12.48;6.80;;;;;;;11.12;70.59;99167.47;4937188;29;20034;-89
2022/09/26 02:33:51;;;;;;;10.65;6.85;;;;;;;11.33;70.12;99186.22;4952827;28;20390;-89
2022/09/26 02:36:17;;;;;;;12.38;7.15;;;;;;;11.15;70.51;99168.78;4937281;29;20023;-89
2022/09/26 02:38:43;;;;;;;10.05;7.45;;;;;;;11.14;70.43;99167.16;4928994;29;20066;-89
2022/09/26 02:41:36;;;;;;;14.57;8.68;;;;;;;11.26;70.56;99185.69;4898923;29;20061;-89
2022/09/26 02:44:10;;;;;;;18.92;9.57;;;;;;;11.10;70.68;99179.56;4928514;29;20102;-89
2022/09/26 02:47:14;;;;;;;18.08;9.27;;;;;;;11.05;70.81;99174.22;4937883;29;20027;-89
2022/09/26 02:50:02;;;;;;;21.83;10.48;;;;;;;11.11;70.70;99179.31;4895596;29;20041;-89
2022/09/26 02:52:46;;;;;;;16.77;10.10;;;;;;;11.22;70.32;99169.28;4878922;29;20615;-89
2022/09/26 02:55:20;;;;;;;14.25;9.07;;;;;;;11.18;70.84;99170.09;4921201;29;20042;-89
2022/09/26 02:58:08;;;;;;;13.05;8.85;;;;;;;10.98;71.62;99168.31;4933787;29;20502;-89
2022/09/26 03:00:52;;;;;;;13.65;9.07;;;;;;;10.79;71.68;99139.31;4914609;29;20028;-89
2022/09/26 03:03:23;;;;;;;13.60;9.30;;;;;;;10.79;72.27;99155.47;4902250;29;20030;-88
2022/09/26 03:05:50;;;;;;;15.77;9.87;;;;;;;10.81;71.95;99150.63;4936797;29;20195;-89
2022/09/26 03:08:21;;;;;;;14.23;8.98;;;;;;;10.80;71.28;99134.72;4921647;29;20322;-89
2022/09/26 03:10:46;;;;;;;14.15;10.02;;;;;;;10.80;71.72;99132.03;4922204;29;20442;-89
2022/09/26 03:13:15;;;;;;;15.27;9.55;;;;;;;10.95;71.17;99137.34;4921624;29;20023;-89
2022/09/26 03:15:43;;;;;;;17.95;11.60;;;;;;;11.02;71.23;99142.44;4887029;29;20052;-89
2022/09/26 03:18:12;;;;;;;18.85;9.23;;;;;;;11.03;70.76;99130.56;4903930;29;20499;-89
2022/09/26 03:20:37;;;;;;;15.48;9.00;;;;;;;11.01;70.69;99125.47;4918751;29;20039;-90
2022/09/26 03:23:03;;;;;;;18.17;9.70;;;;;;;11.08;70.34;99125.97;4903717;29;20028;-89
2022/09/26 03:25:28;;;;;;;14.38;9.38;;;;;;;11.12;70.12;99127.03;4886823;29;20063;-90
2022/09/26 03:27:54;;;;;;;13.63;8.15;;;;;;;10.99;70.89;99126.81;4903241;29;20060;-89
2022/09/26 03:30:20;;;;;;;16.60;9.10;;;;;;;10.98;70.87;99127.91;4887082;29;20024;-90
2022/09/26 03:32:46;;;;;;;13.80;8.57;;;;;;;11.09;70.80;99137.56;4902081;29;20071;-89
2022/09/26 03:35:11;;;;;;;13.30;7.63;;;;;;;10.91;71.45;99130.91;4901568;29;20117;-89
2022/09/26 03:37:37;;;;;;;14.45;8.70;;;;;;;10.83;71.24;99116.13;4901749;29;20024;-89
2022/09/26 03:40:03;;;;;;;13.60;9.35;;;;;;;10.80;71.42;99121.25;4886056;29;20024;-91
2022/09/26 03:42:32;;;;;;;25.08;10.02;;;;;;;10.70;71.82;99114.81;4902440;29;20032;-90
2022/09/26 03:45:00;;;;;;;19.23;9.73;;;;;;;10.59;71.91;99110.56;4902921;29;20574;-90
2022/09/26 03:47:26;;;;;;;16.90;9.32;;;;;;;10.62;72.26;99136.94;4917267;29;20043;-89
2022/09/26 03:49:52;;;;;;;16.52;9.57;;;;;;;10.49;72.10;99114.09;4885993;29;20024;-90
2022/09/26 03:52:17;;;;;;;13.68;9.55;;;;;;;10.51;71.96;99113.81;4901364;29;20055;-90
2022/09/26 03:54:43;;;;;;;16.25;9.15;;;;;;;10.56;71.69;99113.78;4901897;29;20066;-90
2022/09/26 03:57:11;;;;;;;15.20;9.20;;;;;;;10.48;72.43;99117.88;4886177;29;20388;-90
2022/09/26 03:59:37;;;;;;;19.40;9.40;;;;;;;10.50;72.50;99117.63;4917300;29;20452;-89
2022/09/26 04:02:02;;;;;;;15.43;10.45;;;;;;;10.56;71.97;99121.88;4901180;29;20074;-91
2022/09/26 04:04:28;;;;;;;26.48;11.07;;;;;;;10.56;71.75;99104.91;4900969;29;20434;-89
2022/09/26 04:06:53;;;;;;;19.77;10.18;;;;;;;10.63;71.87;99130.47;4901198;29;20020;-89
2022/09/26 04:09:19;;;;;;;15.55;9.85;;;;;;;10.64;71.59;99110.53;4917323;29;20028;-90
2022/09/26 04:11:45;;;;;;;16.50;10.82;;;;;;;10.57;71.60;99099.25;4904567;29;20024;-89
2022/09/26 04:14:10;;;;;;;15.63;10.38;;;;;;;10.62;71.39;99099.22;4916288;29;20024;-89
2022/09/26 04:16:37;;;;;;;17.20;10.95;;;;;;;10.69;71.56;99115.13;4921129;29;20024;-92
2022/09/26 04:19:02;;;;;;;16.67;10.63;;;;;;;10.64;71.53;99110.53;4920568;28;20023;-90
2022/09/26 04:24:38;;;;;;;19.55;11.18;;;;;;;10.72;70.79;99095.69;4937732;29;20039;-89
2022/09/26 04:27:05;;;;;;;17.95;10.90;;;;;;;10.84;70.56;99096.19;4903955;29;20024;-90
2022/09/26 04:29:30;;;;;;;15.18;10.43;;;;;;;10.84;71.17;99098.09;4919870;29;20016;-91
2022/09/26 04:31:56;;;;;;;13.82;9.43;;;;;;;10.89;71.09;99108.81;4935863;29;20015;-90
2022/09/26 04:34:23;;;;;;;18.67;10.57;;;;;;;10.81;71.53;99110.22;4919236;29;20038;-89
2022/09/26 04:36:50;;;;;;;20.15;9.80;;;;;;;10.83;71.33;99109.91;4919581;29;20454;-89
2022/09/26 04:39:15;;;;;;;17.40;10.20;;;;;;;10.95;70.85;99096.13;4935473;29;20027;-90
2022/09/26 04:41:41;;;;;;;21.05;10.38;;;;;;;10.87;71.30;99102.91;4919830;29;20481;-93
2022/09/26 04:44:08;;;;;;;20.80;10.07;;;;;;;10.93;70.85;99117.97;4919698;29;20035;-92
2022/09/26 04:46:34;;;;;;;22.50;11.20;;;;;;;10.99;70.89;99116.06;4905085;29;20023;-91
2022/09/26 04:48:59;;;;;;;18.10;11.50;;;;;;;10.95;71.08;99110.41;4899190;29;20465;-89
2022/09/26 04:51:25;;;;;;;15.55;10.13;;;;;;;11.06;70.38;99122.75;4885091;29;20032;-88
2022/09/26 04:53:51;;;;;;;16.08;9.73;;;;;;;10.98;70.69;99126.03;4902027;29;20116;-90
2022/09/26 04:56:17;;;;;;;16.65;10.43;;;;;;;11.13;70.10;99125.13;4903593;29;20083;-88
2022/09/26 04:58:43;;;;;;;18.13;10.05;;;;;;;11.16;70.34;99140.75;4920458;29;20122;-92
2022/09/26 05:01:10;;;;;;;19.33;9.90;;;;;;;10.87;71.03;99109.13;4904729;29;20118;-92
2022/09/26 05:03:36;;;;;;;16.38;10.18;;;;;;;10.98;70.67;99117.94;4888147;29;20122;-93
2022/09/26 05:06:06;;;;;;;13.48;9.15;;;;;;;11.11;70.33;99132.69;4905595;29;20562;-93
2022/09/26 05:08:55;;;;;;;21.13;11.57;;;;;;;11.09;70.13;99116.00;4892413;29;20024;-95
2022/09/26 05:11:20;;;;;;;28.00;13.63;;;;;;;11.26;69.84;99123.72;4909346;29;20375;-91
2022/09/26 05:13:47;;;;;;;20.23;10.38;;;;;;;11.35;70.66;99143.63;4906815;29;20076;-92
2022/09/26 05:16:13;;;;;;;24.23;11.18;;;;;;;11.28;70.33;99135.03;4906575;29;20058;-94
2022/09/26 05:18:38;;;;;;;21.10;11.32;;;;;;;11.39;70.03;99133.84;4906721;29;20504;-92
2022/09/26 05:21:06;;;;;;;27.85;11.27;;;;;;;11.38;70.10;99126.06;4905554;29;20027;-89
2022/09/26 05:26:22;;;;;;;26.30;11.43;;;;;;;11.55;69.32;99131.06;4910747;29;20031;-92
2022/09/26 05:28:55;;;;;;;34.08;17.10;;;;;;;11.39;69.54;99117.69;4907153;29;20028;-89
2022/09/26 05:31:27;;;;;;;25.13;14.85;;;;;;;11.49;69.29;99106.03;4888625;29;20031;-91
2022/09/26 05:33:59;;;;;;;17.25;11.80;;;;;;;11.62;68.96;99104.59;4904041;29;20115;-88
2022/09/26 05:36:24;;;;;;;22.73;14.85;;;;;;;11.89;68.88;99125.69;4903374;29;20395;-89
2022/09/26 05:38:50;;;;;;;27.27;14.88;;;;;;;11.98;68.15;99109.72;4915858;29;20039;-89
2022/09/26 05:41:16;;;;;;;36.35;20.70;;;;;;;11.93;68.51;99097.06;4888891;29;20150;-90
2022/09/26 05:43:42;;;;;;;26.80;15.55;;;;;;;12.07;67.75;99103.41;4893567;29;20027;-90
2022/09/26 05:46:09;;;;;;;49.40;29.65;;;;;;;12.33;67.54;99127.47;4904237;29;20502;-90
2022/09/26 05:48:35;;;;;;;23.65;14.32;;;;;;;12.28;67.47;99093.19;4887821;29;20031;-90
2022/09/26 05:51:04;;;;;;;18.23;11.80;;;;;;;12.49;66.48;99101.91;4902945;29;20054;-89
2022/09/26 05:53:36;;;;;;;18.65;10.98;;;;;;;12.76;65.66;99115.91;4887155;29;20064;-91
2022/09/26 05:56:01;;;;;;;;;;;;;;;12.93;65.58;99130.53;4884357;29;20118;-89
2022/09/26 05:58:30;;;;;;;17.85;10.75;;;;;;;12.87;65.37;99103.88;4881504;29;19958;-92
2022/09/26 06:01:12;;;;;;;22.33;11.05;;;;;;;12.86;65.03;99086.06;4867394;29;20115;-89
2022/09/26 06:04:28;;;;;;;16.52;10.30;;;;;;;13.13;65.10;99115.16;4852620;29;20387;-88
2022/09/26 06:06:47;;;;;;;15.57;11.30;;;;;;;13.45;64.89;99116.34;4899476;29;20048;-89
2022/09/26 06:09:18;;;;;;;25.77;10.82;;;;;;;13.46;64.12;99096.31;4883971;29;20468;-94
2022/09/26 06:11:49;;;;;;;20.35;10.70;;;;;;;13.67;63.57;99104.91;4854421;29;20040;-93
2022/09/26 06:14:15;;;;;;;15.77;10.52;;;;;;;13.87;63.10;99110.00;4870680;29;20044;-91
2022/09/26 06:16:55;;;;;;;23.40;10.85;;;;;;;13.82;62.70;99109.25;4901375;29;20028;-90
2022/09/26 06:19:21;;;;;;;16.80;10.05;;;;;;;13.96;62.79;99115.53;4869492;29;20036;-90
2022/09/26 06:21:46;;;;;;;17.15;10.52;;;;;;;14.09;62.62;99109.34;4880145;29;20039;-91
2022/09/26 06:24:12;;;;;;;18.00;11.07;;;;;;;14.32;61.88;99117.59;4905839;29;20098;-92
2022/09/26 06:26:37;;;;;;;16.48;9.00;;;;;;;14.41;61.34;99104.16;4904608;29;20031;-90
2022/09/26 06:29:03;;;;;;;19.30;8.18;;;;;;;14.71;59.22;99128.00;4905815;29;20030;-92
2022/09/26 06:31:29;;;;;;;12.77;5.40;;;;;;;14.78;57.96;99121.34;4905786;29;20036;-90
2022/09/26 06:34:04;;;;;;;9.15;4.93;;;;;;;14.84;56.72;99101.19;4921084;29;20063;-89
2022/09/26 06:36:30;;;;;;;12.82;4.55;;;;;;;14.84;56.84;99079.50;4889655;29;20063;-93
2022/09/26 06:38:55;;;;;;;14.45;4.20;;;;;;;15.10;56.13;99102.22;4904268;29;20023;-91
2022/09/26 06:41:21;;;;;;;5.55;3.67;;;;;;;15.36;55.57;99110.59;4900813;29;20036;-91
2022/09/26 06:43:47;;;;;;;5.03;3.90;;;;;;;15.35;55.39;99083.75;4885373;29;20056;-91
2022/09/26 06:46:14;;;;;;;7.18;3.58;;;;;;;15.56;55.10;99101.19;4888475;29;20028;-92
2022/09/26 06:48:50;;;;;;;11.50;5.65;;;;;;;15.63;55.16;99087.16;4901083;29;20039;-92
2022/09/26 06:51:16;;;;;;;22.80;11.38;;;;;;;15.87;55.07;99103.16;4902593;29;20023;-91
2022/09/26 06:53:44;;;;;;;23.17;13.65;;;;;;;15.98;55.10;99105.59;4901680;29;20051;-92
2022/09/26 06:56:12;;;;;;;10.80;6.03;;;;;;;16.14;54.44;99099.50;4921648;29;20027;-91
2022/09/26 06:58:38;;;;;;;9.00;5.88;;;;;;;16.41;54.27;99116.69;4903677;29;20039;-90
2022/09/26 07:01:05;;;;;;;9.00;4.90;;;;;;;16.37;53.75;99085.81;4889877;29;20056;-91
2022/09/26 07:03:31;;;;;;;8.23;5.50;;;;;;;16.54;52.58;99087.81;4885870;29;20086;-91
2022/09/26 07:05:57;;;;;;;8.38;5.85;;;;;;;16.69;52.50;99090.09;4902502;29;20019;-92
2022/09/26 07:08:24;;;;;;;8.85;5.80;;;;;;;16.86;51.88;99091.28;4883440;29;20542;-90
2022/09/26 07:10:53;;;;;;;7.85;5.22;;;;;;;16.87;51.58;99088.25;4887751;29;20036;-92
2022/09/26 07:13:21;;;;;;;5.32;4.75;;;;;;;17.15;50.54;99090.69;4920023;29;20043;-88
2022/09/26 07:15:47;;;;;;;6.65;4.85;;;;;;;17.50;50.10;99109.75;4892000;29;20514;-90
2022/09/26 07:18:12;;;;;;;5.72;4.85;;;;;;;17.60;50.16;99089.53;4886182;29;20410;-90
2022/09/26 07:20:46;;;;;;;6.15;4.25;;;;;;;17.83;49.97;99085.53;4917118;29;20036;-93
2022/09/26 07:23:12;;;;;;;8.32;5.00;;;;;;;18.06;49.00;99086.13;4876648;29;20075;-91
2022/09/26 07:25:38;;;;;;;10.43;7.05;;;;;;;18.23;48.87;99068.91;4889434;29;20491;-92
2022/09/26 07:29:32;;;;;;;11.07;7.28;;;;;;;18.53;49.29;99080.66;4894308;29;20458;-91
2022/09/26 07:35:49;;;;;;;6.35;4.18;;;;;;;18.93;47.03;99077.56;4870978;29;20037;-94
2022/09/26 07:38:41;;;;;;;10.60;5.88;;;;;;;19.05;46.63;99065.94;4851328;29;20452;-91
2022/09/26 07:44:39;;;;;;;8.05;6.00;;;;;;;19.40;45.61;99043.78;4842170;29;20044;-95
2022/09/26 07:54:22;;;;;;;10.63;5.72;;;;;;;20.17;44.75;99070.66;5475061;23;20225;-94
2022/09/26 07:57:11;;;;;;;15.43;8.07;;;;;;;20.14;44.59;99038.53;4898084;29;20048;-94
2022/09/26 07:59:54;;;;;;;5.28;3.88;;;;;;;20.29;43.35;99048.00;4891449;29;20040;-96
2022/09/26 08:02:28;;;;;;;4.80;4.10;;;;;;;20.54;42.12;99063.28;4883378;29;20043;-96
2022/09/26 08:05:02;;;;;;;6.15;3.55;;;;;;;20.64;41.69;99058.50;4902300;29;20059;-96
2022/09/26 08:07:40;;;;;;;5.22;3.70;;;;;;;20.70;42.12;99040.72;4900163;29;20024;-96
2022/09/26 08:10:14;;;;;;;7.32;3.80;;;;;;;20.81;43.15;99039.09;4915816;29;20032;-96
2022/09/26 08:15:36;;;;;;;5.72;4.18;;;;;;;21.03;43.47;99054.22;5391774;23;20055;-95
2022/09/26 08:18:37;;;;;;;6.80;4.03;;;;;;;20.89;42.91;99024.47;4899734;29;20046;-96
2022/09/26 08:21:13;;;;;;;5.28;3.45;;;;;;;20.97;42.34;99015.34;4908304;29;20032;-96
2022/09/26 08:30:02;;;;;;;4.72;3.08;;;;;;;21.33;41.56;99021.84;4932389;28;20067;-92
2022/09/26 08:32:31;;;;;;;5.57;3.50;;;;;;;21.27;40.31;98992.31;4868862;29;20060;-90
2022/09/26 08:34:59;;;;;;;36.72;22.40;;;;;;;21.60;38.48;99008.47;4869548;29;20047;-93
2022/09/26 08:37:26;;;;;;;6.97;4.97;;;;;;;21.62;38.74;98986.22;4861654;29;20045;-91
2022/09/26 08:39:52;;;;;;;6.57;4.03;;;;;;;21.83;39.53;99007.91;4858885;29;20117;-91
2022/09/26 08:42:48;;;;;;;4.20;3.15;;;;;;;22.04;37.46;99018.59;4841491;29;20517;-91
2022/09/26 08:46:30;;;;;;;4.00;2.85;;;;;;;22.16;32.90;99013.84;4916081;29;20040;-91
2022/09/26 08:49:24;;;;;;;2.42;1.67;;;;;;;22.31;32.40;99012.25;4915042;29;20039;-91
2022/09/26 08:51:51;;;;;;;3.25;2.10;;;;;;;22.19;31.65;98979.41;4915413;29;20043;-88
2022/09/26 08:54:51;;;;;;;3.15;2.30;;;;;;;22.34;32.69;98991.53;4901368;29;20032;-92
2022/09/26 08:57:47;;;;;;;5.10;2.65;;;;;;;22.56;32.92;98995.59;4898386;29;20087;-91
2022/09/26 09:00:18;;;;;;;4.80;2.17;;;;;;;22.62;33.21;98971.38;4915875;29;20526;-90
2022/09/26 09:03:02;;;;;;;5.05;3.30;;;;;;;22.73;33.08;98975.16;4915390;29;20032;-90
2022/09/26 09:05:31;;;;;;;5.18;3.00;;;;;;;22.68;33.93;98943.31;4918762;29;20142;-89
2022/09/26 09:08:21;;;;;;;5.45;3.33;;;;;;;22.87;33.24;98961.75;4859183;29;20464;-89
2022/09/26 09:11:10;;;;;;;4.95;2.88;;;;;;;23.04;33.50;98974.25;4888366;29;20060;-89
2022/09/26 09:14:07;;;;;;;4.18;2.90;;;;;;;23.20;31.07;98963.19;4877448;29;20024;-89
2022/09/26 09:16:43;;;;;;;5.20;3.97;;;;;;;23.23;30.91;98942.44;4883559;29;20045;-88
2022/09/26 09:19:33;;;;;;;3.03;2.15;;;;;;;23.40;30.65;98948.25;4870136;29;20064;-89
2022/09/26 09:22:01;;;;;;;3.35;2.05;;;;;;;23.49;31.67;98939.81;4872937;29;20029;-88
2022/09/26 09:24:57;;;;;;;2.72;2.15;;;;;;;23.49;30.96;98928.00;4882381;29;20029;-95
2022/09/26 09:27:45;;;;;;;4.28;2.40;;;;;;;23.55;31.76;98910.84;4883767;29;20073;-94
2022/09/26 09:30:42;;;;;;;2.88;2.30;;;;;;;23.74;31.51;98917.41;4882728;29;20040;-95
2022/09/26 09:33:20;;;;;;;2.80;2.10;;;;;;;23.71;31.65;98898.91;4883290;29;20131;-94
2022/09/26 09:39:03;;;;;;;7.35;4.03;;;;;;;23.84;30.55;98919.56;4875753;29;20033;-96
2022/09/26 09:42:06;;;;;;;4.78;3.28;;;;;;;23.69;31.06;98893.00;4884836;29;20033;-94
2022/09/26 09:47:40;;;;;;;3.47;2.40;;;;;;;23.91;30.10;98894.16;4882605;29;20412;-95
2022/09/26 09:50:45;;;;;;;2.63;1.98;;;;;;;24.06;29.80;98900.66;4865795;29;20044;-95
2022/09/26 09:53:51;;;;;;;3.50;1.85;;;;;;;24.17;28.98;98912.63;4866899;29;20100;-94
2022/09/26 09:56:35;;;;;;;3.67;2.13;;;;;;;24.19;29.57;98910.28;4865630;29;20052;-93
2022/09/26 09:59:13;;;;;;;4.28;2.05;;;;;;;24.33;29.34;98917.94;4867893;29;20064;-95
2022/09/26 10:01:43;;;;;;;2.50;1.75;;;;;;;24.29;29.00;98895.09;4888396;29;20029;-94
2022/09/26 10:04:33;;;;;;;2.72;1.83;;;;;;;24.37;29.02;98894.03;4872073;29;20032;-94
2022/09/26 10:07:02;;;;;;;3.42;1.83;;;;;;;24.29;29.52;98884.09;4887247;29;20036;-96
2022/09/26 10:15:00;;;;;;;5.07;2.40;;;;;;;24.60;29.21;98875.47;5554504;23;20433;-92
2022/09/26 10:17:26;;;;;;;2.40;1.60;;;;;;;24.55;28.56;98852.97;4907405;29;20355;-89
2022/09/26 10:19:52;;;;;;;3.90;2.30;;;;;;;24.74;29.29;98855.59;4906045;29;20501;-90
2022/09/26 10:22:41;;;;;;;3.88;2.00;;;;;;;24.76;29.57;98855.22;4903064;29;20122;-94
2022/09/26 10:31:23;;;;;;;4.47;2.80;;;;;;;24.96;29.00;98853.06;4942795;29;20102;-92
2022/09/26 10:34:04;;;;;;;3.63;2.30;;;;;;;24.93;28.52;98853.81;4917052;29;20035;-96
2022/09/26 10:36:41;;;;;;;3.25;1.95;;;;;;;25.03;28.68;98853.13;4938019;29;20008;-95
2022/09/26 10:42:35;;;;;;;3.05;1.50;;;;;;;25.17;28.16;98856.03;4934209;29;20054;-96
2022/09/26 10:45:12;;;;;;;3.28;1.60;;;;;;;25.06;28.92;98835.84;5215684;23;20150;-94
2022/09/26 10:47:39;;;;;;;2.20;1.52;;;;;;;25.28;28.37;98847.91;4916959;29;20076;-96
2022/09/26 10:50:34;;;;;;;3.35;2.20;;;;;;;25.15;28.46;98830.00;4913196;29;20063;-95
2022/09/26 10:53:08;;;;;;;3.55;2.42;;;;;;;25.13;28.69;98830.41;4857980;29;20077;-94
2022/09/26 10:56:41;;;;;;;;;;;;;;;;;;;;;
2022/09/26 10:59:08;;;;;;;4.72;2.15;;;;;;;25.13;29.39;98833.16;4803826;29;20078;-96
2022/09/26 11:02:08;;;;;;;2.42;1.65;;;;;;;25.28;29.38;98836.88;4787711;30;20039;-96
2022/09/26 11:16:13;;;;;;;5.22;3.60;;;;;;;25.66;28.06;98803.69;5207726;23;20063;-93
2022/09/26 11:27:23;;;;;;;2.35;1.70;;;;;;;25.99;27.33;98809.03;4931400;29;19930;-96
2022/09/26 11:58:44;;;;;;;1.95;1.38;;;;;;;26.01;27.78;98759.78;5113295;23;20134;-95
2022/09/26 12:01:51;;;;;;;1.80;1.30;;;;;;;26.06;27.98;98750.31;4957246;28;20051;-96
2022/09/26 12:27:24;;;;;;;1.77;1.45;;;;;;;26.33;28.21;98725.97;2068499;23;20322;-94
2022/09/26 12:56:25;;;;;;;3.90;1.60;;;;;;;26.64;27.16;98709.88;2632813;23;20052;-92
2022/09/26 12:59:22;;;;;;;1.83;1.45;;;;;;;26.73;27.23;98715.03;4933442;29;20040;-92
2022/09/26 13:01:52;;;;;;;3.17;2.03;;;;;;;26.89;27.81;98700.84;4900393;29;20546;-94
2022/09/26 13:05:01;;;;;;;3.88;1.77;;;;;;;26.96;27.59;98698.09;4918852;29;20118;-93
2022/09/26 13:07:54;;;;;;;3.22;1.77;;;;;;;26.93;28.13;98688.59;4907440;29;20131;-93
2022/09/26 13:10:50;;;;;;;3.15;2.00;;;;;;;27.00;27.76;98682.28;4901904;29;20424;-94
2022/09/26 13:13:53;;;;;;;2.97;2.10;;;;;;;27.08;27.35;98705.97;4918040;29;20038;-92
2022/09/26 13:16:42;;;;;;;5.30;2.33;;;;;;;27.00;27.46;98696.09;4940846;29;20090;-91
2022/09/26 13:19:20;;;;;;;2.55;1.58;;;;;;;27.04;27.22;98702.44;4936722;29;20031;-94
2022/09/26 13:22:30;;;;;;;3.25;2.28;;;;;;;27.02;27.62;98702.03;4920761;29;20063;-92
2022/09/26 13:25:16;;;;;;;2.97;1.95;;;;;;;26.86;28.18;98680.31;4935587;29;20405;-92
2022/09/26 13:28:05;;;;;;;4.32;2.20;;;;;;;26.77;28.13;98672.44;4902745;29;20447;-91
2022/09/26 13:30:34;;;;;;;3.72;1.38;;;;;;;26.69;27.49;98679.13;4936225;29;20030;-92
2022/09/26 13:33:50;;;;;;;3.22;1.88;;;;;;;26.81;27.51;98700.03;4904848;29;20051;-93
2022/09/26 13:36:32;;;;;;;3.20;2.00;;;;;;;26.64;27.78;98668.47;4945108;29;20035;-95
2022/09/26 13:39:37;;;;;;;2.95;2.05;;;;;;;26.77;28.49;98689.00;4936433;29;20048;-95
2022/09/26 13:45:32;;;;;;;2.75;2.20;;;;;;;26.55;28.26;98682.63;5129986;23;20057;-95
2022/09/26 13:48:12;;;;;;;2.70;1.80;;;;;;;26.65;28.48;98700.44;4926231;29;20136;-95
2022/09/26 14:10:03;;;;;;;2.17;1.77;;;;;;;26.67;28.05;98669.69;5028329;28;20133;-94
2022/09/26 14:15:45;;;;;;;4.95;3.45;;;;;;;26.59;28.06;98672.41;5028544;28;20442;-96
2022/09/26 14:21:32;;;;;;;;;;;;;;;26.58;28.26;98664.50;5037758;28;20041;-96
2022/09/26 14:24:27;;;;;;;9.02;5.00;;;;;;;26.58;28.45;98661.75;5033418;28;19909;-96
2022/09/26 14:47:13;;;;;;;8.98;3.40;;;;;;;25.63;31.99;98628.78;4915587;29;20068;-96
2022/09/26 14:49:39;;;;;;;4.50;2.50;;;;;;;25.57;31.83;98622.84;4873851;29;20044;-96
2022/09/26 14:52:04;;;;;;;7.15;3.08;;;;;;;25.59;31.95;98637.03;4873917;29;20066;-96
2022/09/26 14:54:37;;;;;;;5.75;3.63;;;;;;;25.47;32.25;98623.59;4873848;29;20495;-96
2022/09/26 14:57:07;;;;;;;7.95;3.50;;;;;;;25.49;33.07;98637.78;4871059;29;20088;-96
2022/09/26 14:59:38;;;;;;;6.28;2.83;;;;;;;25.50;33.03;98652.34;4871550;29;20035;-96
2022/09/26 15:02:24;;;;;;;16.48;7.78;;;;;;;25.42;32.81;98651.50;4907646;29;20029;-95
2022/09/26 15:05:18;;;;;;;4.85;2.95;;;;;;;25.18;32.84;98625.38;4884747;29;20028;-94
2022/09/26 15:07:52;;;;;;;4.28;2.40;;;;;;;25.17;33.66;98634.81;4898212;29;20040;-96
2022/09/26 15:10:38;;;;;;;6.47;2.63;;;;;;;25.02;33.25;98620.16;4874716;29;20043;-95
2022/09/26 15:13:13;;;;;;;4.75;2.53;;;;;;;25.05;33.65;98644.19;4995114;23;20014;-93
2022/09/26 15:44:00;;;;;;;6.63;2.88;;;;;;;23.72;34.54;98640.16;4123921;23;20170;31
2022/09/26 15:49:19;;;;;;;4.03;2.20;;;;;;;23.67;33.76;98656.19;5554413;23;20039;-96
2022/09/26 15:51:56;;;;;;;4.82;2.38;;;;;;;23.52;34.13;98646.97;5041602;23;20047;-95
2022/09/26 15:59:30;;;;;;;4.82;2.65;;;;;;;23.30;34.46;98646.66;4936967;28;20051;-91